Wilsden, United Kingdom
Current Conditions -  °F | °C
As of 1:50 AM on Sunday 21 Dec 2014 (Local Time) from EGNM Reporting Station
Rain Showers Rain Showers  
Wind Chill: 35°   Ceiling: Unl
Heat Index: 43°   Visibility: 6mi
Dew Point: 39°   Wind: 17mph
Humidity: 87%   Direction: 240°WSW
Pressure: 30.24"   Gusts: NA
Location:  53.82°N, 1.86°W
Report Text: EGNM 210150Z 24015KT 9999 -SHRA FEW011 SCT018 06/04 Q1024
Loading
Personal Weather Stations






























Interactive Weather Map New forecast layout! Learn more

10-Day Weather Forecast

Advertisements
Track Severe Weather on mobile